createdAt,value
2022-12-27T00:00:43.783Z,3.40
2022-12-27T00:02:45.330Z,3.40
2022-12-27T00:04:47.012Z,3.38
2022-12-27T00:06:48.529Z,3.37
2022-12-27T00:08:50.291Z,3.39
2022-12-27T00:10:52.075Z,3.40
2022-12-27T00:12:54.123Z,3.36
2022-12-27T00:14:55.561Z,3.33
2022-12-27T00:16:57.037Z,3.28
2022-12-27T00:18:58.952Z,3.24
2022-12-27T00:21:01.955Z,3.23
2022-12-27T00:23:03.560Z,3.23
2022-12-27T00:25:05.491Z,3.18
2022-12-27T00:27:06.934Z,3.18
2022-12-27T00:29:10.464Z,3.17
2022-12-27T00:31:12.556Z,3.17
2022-12-27T00:33:14.043Z,3.13
2022-12-27T00:35:15.630Z,3.12
2022-12-27T00:37:17.116Z,3.14
2022-12-27T00:39:18.836Z,3.10
2022-12-27T00:41:20.484Z,3.09
2022-12-27T00:43:21.924Z,3.07
2022-12-27T00:45:23.421Z,3.07
2022-12-27T00:47:24.937Z,3.05
2022-12-27T00:49:26.471Z,3.03
2022-12-27T00:51:28.326Z,3.06
2022-12-27T00:53:30.798Z,3.06
2022-12-27T00:55:32.697Z,3.06
2022-12-27T00:57:34.147Z,3.08
2022-12-27T00:59:35.587Z,3.09
2022-12-27T01:01:38.722Z,3.13
2022-12-27T01:03:40.409Z,3.13
2022-12-27T01:05:41.900Z,3.12
2022-12-27T01:07:43.456Z,3.12
2022-12-27T01:09:44.895Z,3.11
2022-12-27T01:11:46.341Z,3.14
2022-12-27T01:13:48.026Z,3.18
2022-12-27T01:15:49.485Z,3.22
2022-12-27T01:17:51.747Z,3.20
2022-12-27T01:19:53.183Z,3.17
2022-12-27T01:21:54.645Z,3.16
2022-12-27T01:23:56.282Z,3.18
2022-12-27T01:26:02.867Z,3.19
2022-12-27T01:28:04.361Z,3.20
2022-12-27T01:30:07.438Z,3.25
2022-12-27T01:32:09.014Z,3.25
2022-12-27T01:34:10.998Z,3.27
2022-12-27T01:36:20.991Z,3.25
2022-12-27T01:38:22.463Z,3.24
2022-12-27T01:40:25.355Z,3.25
2022-12-27T01:42:45.851Z,3.23
2022-12-27T01:44:54.979Z,3.23
2022-12-27T01:46:56.562Z,3.21
2022-12-27T01:48:58.379Z,3.19
2022-12-27T01:51:02.912Z,3.20
2022-12-27T01:53:21.256Z,3.18
2022-12-27T01:56:02.750Z,3.23
2022-12-27T01:58:29.961Z,3.26
2022-12-27T02:00:31.508Z,3.28
2022-12-27T02:02:33.247Z,3.29
2022-12-27T02:04:34.922Z,3.29
2022-12-27T02:06:37.899Z,3.26
2022-12-27T02:08:49.499Z,3.24
2022-12-27T02:10:51.305Z,3.20
2022-12-27T02:12:52.892Z,3.20
2022-12-27T02:14:54.465Z,3.21
2022-12-27T02:16:58.431Z,3.19
2022-12-27T02:19:00.040Z,3.18
2022-12-27T02:21:34.570Z,3.13
2022-12-27T02:24:03.934Z,3.14
2022-12-27T02:26:24.249Z,3.11
2022-12-27T02:28:46.369Z,3.10
2022-12-27T02:30:54.228Z,3.09
2022-12-27T02:33:04.695Z,3.11
2022-12-27T02:35:18.551Z,3.15
2022-12-27T02:37:23.498Z,3.20
2022-12-27T02:39:27.321Z,3.21
2022-12-27T02:41:50.504Z,3.22
2022-12-27T02:44:15.184Z,3.23
2022-12-27T02:46:39.918Z,3.20
2022-12-27T02:49:13.347Z,3.20
2022-12-27T02:51:48.497Z,3.20
2022-12-27T02:54:16.285Z,3.20
2022-12-27T02:56:50.306Z,3.21
2022-12-27T02:59:16.264Z,3.17
2022-12-27T03:02:06.478Z,3.16
2022-12-27T03:04:26.075Z,3.13
2022-12-27T03:06:46.066Z,3.14
2022-12-27T03:08:57.855Z,3.18
2022-12-27T03:11:19.583Z,3.18
2022-12-27T03:13:56.148Z,3.17
2022-12-27T03:16:19.349Z,3.15
2022-12-27T03:18:32.338Z,3.16
2022-12-27T03:20:53.714Z,3.17
2022-12-27T03:23:15.282Z,3.16
2022-12-27T03:25:30.165Z,3.21
2022-12-27T03:27:36.403Z,3.25
2022-12-27T03:29:56.786Z,3.27
2022-12-27T03:32:21.178Z,3.28
2022-12-27T03:34:47.369Z,3.28
2022-12-27T03:37:07.759Z,3.32
2022-12-27T03:39:09.143Z,3.35
2022-12-27T03:41:39.474Z,3.36
2022-12-27T03:43:41.450Z,3.38
2022-12-27T03:46:13.481Z,3.43
2022-12-27T03:48:22.526Z,3.45
2022-12-27T03:50:38.221Z,3.46
2022-12-27T03:52:47.549Z,3.47
2022-12-27T03:54:51.814Z,3.48
2022-12-27T03:56:59.187Z,3.50
2022-12-27T03:59:02.360Z,3.44
2022-12-27T04:01:03.893Z,3.43
2022-12-27T04:03:05.468Z,3.47
2022-12-27T04:05:08.108Z,3.50
2022-12-27T04:07:13.044Z,3.52
2022-12-27T04:09:32.725Z,3.58
2022-12-27T04:11:52.492Z,3.60
2022-12-27T04:14:12.794Z,3.56
2022-12-27T04:16:32.623Z,3.57
2022-12-27T04:18:52.329Z,3.55
2022-12-27T04:21:12.148Z,3.57
2022-12-27T04:23:31.853Z,3.58
2022-12-27T04:25:51.684Z,3.57
2022-12-27T04:28:11.435Z,3.56
2022-12-27T04:30:31.392Z,3.53
2022-12-27T04:32:51.257Z,3.52
2022-12-27T04:34:52.717Z,3.51
2022-12-27T04:36:54.201Z,3.54
2022-12-27T04:38:55.665Z,3.56
2022-12-27T04:41:15.433Z,3.58
2022-12-27T04:43:35.218Z,3.63
2022-12-27T04:45:55.475Z,3.66
2022-12-27T04:48:15.703Z,3.68
2022-12-27T04:50:48.252Z,3.67
2022-12-27T04:53:08.036Z,3.64
2022-12-27T04:55:18.890Z,3.58
2022-12-27T04:57:20.326Z,3.56
2022-12-27T04:59:40.227Z,3.57
2022-12-27T05:02:00.742Z,3.54
2022-12-27T05:04:02.363Z,3.54
2022-12-27T05:06:04.551Z,3.53
2022-12-27T05:08:25.412Z,3.54
2022-12-27T05:10:46.253Z,3.53
2022-12-27T05:13:06.617Z,3.54
2022-12-27T05:15:08.583Z,3.54
2022-12-27T05:17:10.078Z,3.56
2022-12-27T05:19:13.315Z,3.57
2022-12-27T05:21:14.826Z,3.57
2022-12-27T05:23:35.322Z,3.58
2022-12-27T05:25:41.638Z,3.58
2022-12-27T05:27:43.139Z,3.57
2022-12-27T05:29:45.526Z,3.56
2022-12-27T05:31:47.047Z,3.55
2022-12-27T05:33:49.772Z,3.54
2022-12-27T05:35:51.234Z,3.54
2022-12-27T05:37:55.912Z,3.52
2022-12-27T05:39:57.433Z,3.51
2022-12-27T05:41:58.885Z,3.52
2022-12-27T05:44:06.564Z,3.58
2022-12-27T05:46:14.260Z,3.61
2022-12-27T05:48:15.857Z,3.61
2022-12-27T05:50:17.468Z,3.62
2022-12-27T05:52:19.153Z,3.60
2022-12-27T05:54:20.666Z,3.57
2022-12-27T05:56:22.364Z,3.58
2022-12-27T05:58:24.716Z,3.59
2022-12-27T06:00:26.237Z,3.60
2022-12-27T06:02:27.935Z,3.59
2022-12-27T06:04:29.586Z,3.57
2022-12-27T06:06:31.053Z,3.55
2022-12-27T06:08:33.082Z,3.54
2022-12-27T06:10:34.853Z,3.53
2022-12-27T06:12:37.320Z,3.52
2022-12-27T06:14:38.809Z,3.52
2022-12-27T06:16:40.366Z,3.52
2022-12-27T06:18:42.825Z,3.50
2022-12-27T06:20:44.305Z,3.51
2022-12-27T06:22:46.015Z,3.54
2022-12-27T06:24:47.479Z,3.56
2022-12-27T06:26:48.982Z,3.60
2022-12-27T06:28:51.855Z,3.63
2022-12-27T06:30:53.309Z,3.65
2022-12-27T06:32:54.768Z,3.68
2022-12-27T06:34:56.250Z,3.68
2022-12-27T06:36:57.694Z,3.68
2022-12-27T06:39:00.076Z,3.68
2022-12-27T06:41:03.199Z,3.69
2022-12-27T06:43:04.685Z,3.66
2022-12-27T06:45:07.132Z,3.67
2022-12-27T06:47:08.641Z,3.66
2022-12-27T06:49:10.978Z,3.66
2022-12-27T06:51:14.133Z,3.64
2022-12-27T06:53:15.782Z,3.63
2022-12-27T06:55:17.233Z,3.57
2022-12-27T06:57:18.741Z,3.53
2022-12-27T06:59:20.211Z,3.51
2022-12-27T07:01:25.196Z,3.45
2022-12-27T07:03:26.730Z,3.47
2022-12-27T07:05:28.184Z,3.44
2022-12-27T07:07:29.620Z,3.42
2022-12-27T07:09:31.108Z,3.35
2022-12-27T07:11:34.444Z,3.34
2022-12-27T07:13:38.663Z,3.36
2022-12-27T07:15:40.121Z,3.34
2022-12-27T07:17:41.608Z,3.33
2022-12-27T07:19:43.096Z,3.36
2022-12-27T07:21:44.554Z,3.38
2022-12-27T07:23:46.440Z,3.41
2022-12-27T07:25:47.886Z,3.43
2022-12-27T07:27:49.360Z,3.42
2022-12-27T07:29:51.715Z,3.41
2022-12-27T07:31:53.283Z,3.43
2022-12-27T07:33:55.518Z,3.39
2022-12-27T07:35:59.350Z,3.37
2022-12-27T07:38:00.852Z,3.38
2022-12-27T07:40:02.428Z,3.34
2022-12-27T07:42:08.099Z,3.34
2022-12-27T07:44:11.107Z,3.33
2022-12-27T07:46:24.473Z,3.32
2022-12-27T07:48:28.284Z,3.32
2022-12-27T07:50:29.715Z,3.33
2022-12-27T07:52:31.188Z,3.31
2022-12-27T07:54:32.696Z,3.34
2022-12-27T07:56:34.303Z,3.30
2022-12-27T07:58:37.651Z,3.33
2022-12-27T08:00:39.129Z,3.31
2022-12-27T08:02:40.732Z,3.34
2022-12-27T08:04:42.714Z,3.34
2022-12-27T08:06:45.748Z,3.34
2022-12-27T08:08:47.602Z,3.34
2022-12-27T08:10:49.083Z,3.32
2022-12-27T08:12:50.534Z,3.34
2022-12-27T08:14:52.144Z,3.34
2022-12-27T08:16:54.101Z,3.34
2022-12-27T08:18:56.209Z,3.34
2022-12-27T08:20:57.870Z,3.35
2022-12-27T08:22:59.464Z,3.36
2022-12-27T08:25:01.055Z,3.39
2022-12-27T08:27:02.647Z,3.43
2022-12-27T08:29:04.167Z,3.44
2022-12-27T08:31:09.045Z,3.45
2022-12-27T08:33:11.403Z,3.47
2022-12-27T08:35:50.067Z,3.50
2022-12-27T08:37:34.479Z,3.51
2022-12-27T08:39:35.939Z,3.52
2022-12-27T08:41:37.728Z,3.54
2022-12-27T08:43:39.179Z,3.55
2022-12-27T08:45:40.842Z,3.58
2022-12-27T08:47:42.341Z,3.59
2022-12-27T08:49:43.791Z,3.62
2022-12-27T08:51:45.317Z,3.65
2022-12-27T08:53:49.289Z,3.66
2022-12-27T08:55:50.793Z,3.68
2022-12-27T08:57:57.687Z,3.70
2022-12-27T08:59:59.200Z,3.72
2022-12-27T09:02:00.742Z,3.75
2022-12-27T09:04:02.276Z,3.76
2022-12-27T09:06:18.397Z,3.77
2022-12-27T09:08:19.870Z,3.79
2022-12-27T09:10:23.735Z,3.85
2022-12-27T09:12:25.215Z,3.88
2022-12-27T09:14:26.701Z,3.92
2022-12-27T09:16:29.433Z,3.94
2022-12-27T09:18:30.891Z,3.97
2022-12-27T09:20:32.405Z,3.98
2022-12-27T09:22:34.181Z,4.01
2022-12-27T09:24:35.738Z,4.03
2022-12-27T09:26:37.295Z,4.05
2022-12-27T09:28:39.546Z,4.07
2022-12-27T09:30:41.123Z,4.11
2022-12-27T09:32:42.583Z,4.14
2022-12-27T09:34:44.060Z,4.16
2022-12-27T09:36:45.653Z,4.19
2022-12-27T09:38:48.571Z,4.21
2022-12-27T09:40:54.946Z,4.26
2022-12-27T09:43:18.176Z,4.28
2022-12-27T09:45:36.879Z,4.31
2022-12-27T09:48:31.092Z,4.32
2022-12-27T09:50:45.369Z,4.36
2022-12-27T09:53:01.802Z,4.38
2022-12-27T09:55:19.725Z,4.43
2022-12-27T09:57:29.051Z,4.47
2022-12-27T09:59:36.003Z,4.50
2022-12-27T10:01:40.635Z,4.54
2022-12-27T10:03:42.258Z,4.56
2022-12-27T10:05:53.177Z,4.58
2022-12-27T10:08:25.740Z,4.61
2022-12-27T10:10:54.518Z,4.64
2022-12-27T10:13:15.783Z,4.67
2022-12-27T10:15:29.980Z,4.71
2022-12-27T10:18:02.405Z,4.74
2022-12-27T10:20:30.796Z,4.77
2022-12-27T10:22:43.720Z,4.79
2022-12-27T10:24:50.887Z,4.80
2022-12-27T10:26:55.154Z,4.82
2022-12-27T10:29:02.260Z,4.85
2022-12-27T10:31:04.633Z,4.86
2022-12-27T10:33:19.928Z,4.89
2022-12-27T10:35:22.622Z,4.90
2022-12-27T10:37:24.427Z,4.93
2022-12-27T10:39:32.328Z,4.98
2022-12-27T10:42:11.924Z,5.04
2022-12-27T10:44:13.703Z,5.07
2022-12-27T10:46:19.381Z,5.12
2022-12-27T10:48:47.326Z,5.18
2022-12-27T10:50:56.872Z,5.22
2022-12-27T10:52:58.412Z,5.29
2022-12-27T10:54:59.856Z,5.38
2022-12-27T10:57:26.929Z,5.50
2022-12-27T10:59:28.990Z,5.61
2022-12-27T11:01:32.654Z,5.74
2022-12-27T11:03:34.197Z,6.10
2022-12-27T11:05:37.092Z,6.61
2022-12-27T11:07:38.550Z,6.84
2022-12-27T11:09:50.261Z,7.23
2022-12-27T11:12:12.007Z,7.62
2022-12-27T11:14:19.051Z,8.10
2022-12-27T11:16:29.471Z,8.54
2022-12-27T11:18:36.341Z,8.90
2022-12-27T11:20:39.353Z,9.05
2022-12-27T11:22:46.837Z,9.15
2022-12-27T11:24:51.428Z,9.19
2022-12-27T11:26:58.090Z,9.23
2022-12-27T11:29:01.755Z,9.23
2022-12-27T11:31:07.105Z,9.45
2022-12-27T11:33:26.893Z,9.53
2022-12-27T11:35:28.560Z,9.09
2022-12-27T11:37:30.136Z,8.61
2022-12-27T11:39:48.308Z,8.05
2022-12-27T11:41:54.804Z,7.99
2022-12-27T11:44:14.100Z,7.88
2022-12-27T11:46:28.615Z,7.70
2022-12-27T11:48:42.025Z,7.57
2022-12-27T11:51:18.714Z,7.34
2022-12-27T11:53:32.037Z,6.97
2022-12-27T11:55:52.040Z,6.76
2022-12-27T11:58:18.356Z,6.54
2022-12-27T12:00:23.697Z,6.49
2022-12-27T12:02:50.308Z,6.36
2022-12-27T12:05:22.624Z,6.26
2022-12-27T12:07:36.518Z,6.19
2022-12-27T12:09:59.875Z,6.11
2022-12-27T12:12:40.297Z,6.07
2022-12-27T12:14:50.139Z,6.07
2022-12-27T12:17:03.425Z,6.09
2022-12-27T12:19:13.204Z,6.06
2022-12-27T12:21:14.879Z,6.03
2022-12-27T12:23:28.473Z,6.02
2022-12-27T12:25:39.003Z,6.01
2022-12-27T12:27:46.498Z,6.01
2022-12-27T12:30:25.364Z,5.97
2022-12-27T12:32:32.861Z,5.97
2022-12-27T12:35:11.709Z,5.95
2022-12-27T12:37:31.497Z,5.97
2022-12-27T12:39:51.023Z,6.04
2022-12-27T12:42:20.545Z,6.13
2022-12-27T12:44:21.972Z,6.25
2022-12-27T12:46:44.105Z,6.40
2022-12-27T12:48:57.887Z,6.48
2022-12-27T12:51:05.380Z,6.46
2022-12-27T12:53:43.412Z,6.41
2022-12-27T12:55:58.445Z,6.32
2022-12-27T12:58:32.273Z,6.27
2022-12-27T13:00:49.897Z,6.27
2022-12-27T13:03:16.393Z,6.28
2022-12-27T13:05:41.981Z,6.26
2022-12-27T13:07:56.289Z,6.29
2022-12-27T13:10:22.224Z,6.29
2022-12-27T13:12:52.271Z,6.30
2022-12-27T13:15:23.414Z,6.32
2022-12-27T13:17:34.015Z,6.31
2022-12-27T13:19:41.621Z,6.33
2022-12-27T13:22:01.638Z,6.33
2022-12-27T13:24:12.291Z,6.34
2022-12-27T13:26:40.469Z,6.32
2022-12-27T13:29:24.696Z,6.27
2022-12-27T13:31:47.697Z,6.26
2022-12-27T13:34:26.840Z,6.30
2022-12-27T13:36:43.295Z,6.30
2022-12-27T13:39:01.755Z,6.32
2022-12-27T13:41:36.827Z,6.29
2022-12-27T13:44:02.651Z,6.25
2022-12-27T13:46:22.914Z,6.24
2022-12-27T13:48:43.141Z,6.21
2022-12-27T13:51:09.101Z,6.16
2022-12-27T13:53:32.271Z,6.11
2022-12-27T13:55:51.403Z,6.07
2022-12-27T13:58:13.925Z,6.04
2022-12-27T14:00:19.959Z,6.03
2022-12-27T14:02:27.536Z,6.02
2022-12-27T14:04:56.052Z,5.99
2022-12-27T14:07:22.296Z,6.02
2022-12-27T14:09:43.977Z,5.98
2022-12-27T14:12:09.251Z,5.97
2022-12-27T14:14:15.465Z,5.94
2022-12-27T14:16:32.254Z,5.94
2022-12-27T14:19:06.241Z,5.89
2022-12-27T14:21:45.244Z,5.84
2022-12-27T14:24:02.217Z,5.81
2022-12-27T14:26:34.704Z,5.80
2022-12-27T14:28:48.205Z,5.76
2022-12-27T14:31:20.074Z,5.78
2022-12-27T14:33:38.407Z,5.75
2022-12-27T14:35:42.555Z,5.74
2022-12-27T14:38:11.940Z,5.73
2022-12-27T14:40:44.484Z,5.72
2022-12-27T14:43:23.140Z,5.69
2022-12-27T14:45:44.337Z,5.66
2022-12-27T14:48:07.907Z,5.66
2022-12-27T14:50:54.274Z,5.64
2022-12-27T14:53:21.622Z,5.63
2022-12-27T14:55:39.576Z,5.62
2022-12-27T14:58:05.038Z,5.60
2022-12-27T15:00:22.517Z,5.59
2022-12-27T15:02:41.520Z,5.58
2022-12-27T15:05:06.474Z,5.53
2022-12-27T15:07:32.647Z,5.48
2022-12-27T15:09:56.086Z,5.43
2022-12-27T15:12:16.290Z,5.36
2022-12-27T15:14:42.081Z,5.32
2022-12-27T15:17:02.812Z,5.30
2022-12-27T15:19:36.211Z,5.24
2022-12-27T15:21:55.891Z,5.21
2022-12-27T15:24:20.173Z,5.19
2022-12-27T15:26:33.528Z,5.14
2022-12-27T15:28:56.449Z,5.11
2022-12-27T15:31:13.561Z,5.08
2022-12-27T15:33:46.129Z,5.04
2022-12-27T15:36:15.383Z,5.02
2022-12-27T15:38:35.542Z,4.95
2022-12-27T15:40:47.903Z,4.95
2022-12-27T15:42:56.626Z,4.90
2022-12-27T15:45:12.959Z,4.90
2022-12-27T15:47:48.387Z,4.88
2022-12-27T15:49:59.721Z,4.86
2022-12-27T15:52:27.066Z,4.83
2022-12-27T15:54:50.318Z,4.81
2022-12-27T15:57:19.560Z,4.78
2022-12-27T15:59:45.330Z,4.77
2022-12-27T16:01:47.156Z,4.74
2022-12-27T16:03:50.268Z,4.73
2022-12-27T16:05:53.923Z,4.72
2022-12-27T16:07:58.119Z,4.69
2022-12-27T16:09:59.879Z,4.68
2022-12-27T16:12:13.625Z,4.67
2022-12-27T16:14:30.840Z,4.68
2022-12-27T16:16:38.809Z,4.69
2022-12-27T16:18:54.909Z,4.68
2022-12-27T16:21:40.485Z,4.66
2022-12-27T16:23:57.814Z,4.64
2022-12-27T16:26:19.596Z,4.61
2022-12-27T16:28:27.271Z,4.59
2022-12-27T16:30:44.952Z,4.56
2022-12-27T16:32:49.499Z,4.55
2022-12-27T16:34:55.452Z,4.55
2022-12-27T16:37:01.024Z,4.57
2022-12-27T16:39:11.700Z,4.57
2022-12-27T16:41:39.858Z,4.62
2022-12-27T16:43:52.975Z,4.58
2022-12-27T16:45:59.763Z,4.58
2022-12-27T16:48:19.451Z,4.58
2022-12-27T16:50:38.918Z,4.56
2022-12-27T16:53:11.419Z,4.55
2022-12-27T16:55:50.447Z,4.56
2022-12-27T16:57:52.053Z,4.56
2022-12-27T17:00:23.096Z,4.55
2022-12-27T17:02:39.043Z,4.55
2022-12-27T17:04:49.507Z,4.55
2022-12-27T17:06:56.012Z,4.53
2022-12-27T17:09:06.335Z,4.54
2022-12-27T17:11:28.775Z,4.49
2022-12-27T17:13:54.536Z,4.45
2022-12-27T17:15:57.968Z,4.45
2022-12-27T17:18:08.982Z,4.44
2022-12-27T17:20:17.798Z,4.43
2022-12-27T17:22:20.824Z,4.40
2022-12-27T17:24:23.535Z,4.36
2022-12-27T17:26:43.335Z,4.33
2022-12-27T17:29:08.876Z,4.29
2022-12-27T17:31:22.334Z,4.29
2022-12-27T17:33:36.581Z,4.27
2022-12-27T17:36:06.313Z,4.28
2022-12-27T17:38:19.942Z,4.26
2022-12-27T17:40:38.042Z,4.27
2022-12-27T17:43:09.610Z,4.29
2022-12-27T17:45:16.996Z,4.29
2022-12-27T17:47:18.402Z,4.28
2022-12-27T17:49:27.008Z,4.30
2022-12-27T17:51:31.349Z,4.30
2022-12-27T17:53:51.536Z,4.30
2022-12-27T17:56:29.995Z,4.32
2022-12-27T17:58:34.755Z,4.30
2022-12-27T18:00:49.811Z,4.30
2022-12-27T18:02:55.091Z,4.31
2022-12-27T18:05:00.181Z,4.31
2022-12-27T18:07:05.209Z,4.31
2022-12-27T18:09:07.445Z,4.30
2022-12-27T18:11:11.049Z,4.28
2022-12-27T18:13:18.492Z,4.34
2022-12-27T18:15:30.176Z,4.34
2022-12-27T18:17:48.405Z,4.32
2022-12-27T18:19:49.908Z,4.33
2022-12-27T18:22:02.656Z,4.32
2022-12-27T18:24:23.656Z,4.29
2022-12-27T18:26:39.482Z,4.29
2022-12-27T18:28:41.814Z,4.30
2022-12-27T18:30:47.962Z,4.29
2022-12-27T18:32:49.555Z,4.29
2022-12-27T18:34:57.617Z,4.30
2022-12-27T18:37:07.243Z,4.31
2022-12-27T18:39:32.103Z,4.32
2022-12-27T18:42:02.158Z,4.33
2022-12-27T18:44:04.226Z,4.33
2022-12-27T18:46:05.918Z,4.34
2022-12-27T18:48:12.058Z,4.35
2022-12-27T18:50:19.734Z,4.34
2022-12-27T18:52:25.159Z,4.34
2022-12-27T18:54:29.370Z,4.36
2022-12-27T18:56:34.293Z,4.35
2022-12-27T18:58:35.807Z,4.32
2022-12-27T19:00:49.175Z,4.32
2022-12-27T19:02:52.350Z,4.32
2022-12-27T19:05:13.370Z,4.29
2022-12-27T19:07:15.559Z,4.28
2022-12-27T19:09:19.704Z,4.30
2022-12-27T19:11:30.442Z,4.30
2022-12-27T19:13:49.344Z,4.28
2022-12-27T19:15:52.484Z,4.28
2022-12-27T19:18:00.884Z,4.26
2022-12-27T19:20:06.553Z,4.22
2022-12-27T19:22:31.842Z,4.22
2022-12-27T19:24:33.881Z,4.23
2022-12-27T19:26:35.619Z,4.22
2022-12-27T19:28:37.079Z,4.22
2022-12-27T19:30:46.087Z,4.22
2022-12-27T19:32:47.536Z,4.21
2022-12-27T19:34:52.500Z,4.21
2022-12-27T19:36:55.169Z,4.21
2022-12-27T19:38:57.339Z,4.22
2022-12-27T19:41:03.966Z,4.23
2022-12-27T19:43:05.662Z,4.23
2022-12-27T19:45:07.330Z,4.22
2022-12-27T19:47:13.370Z,4.24
2022-12-27T19:49:40.864Z,4.25
2022-12-27T19:51:37.335Z,4.27
2022-12-27T19:53:41.481Z,4.29
2022-12-27T19:55:43.389Z,4.31
2022-12-27T19:57:44.905Z,4.35
2022-12-27T19:59:46.401Z,4.37
2022-12-27T20:01:48.178Z,4.39
2022-12-27T20:03:49.748Z,4.43
2022-12-27T20:06:13.371Z,4.44
2022-12-27T20:08:44.952Z,4.50
2022-12-27T20:10:46.441Z,4.51
2022-12-27T20:12:47.901Z,4.55
2022-12-27T20:14:49.367Z,4.59
2022-12-27T20:16:50.933Z,4.63
2022-12-27T20:18:52.648Z,4.64
2022-12-27T20:20:54.571Z,4.67
2022-12-27T20:22:56.034Z,4.69
2022-12-27T20:24:57.853Z,4.71
2022-12-27T20:26:59.407Z,4.75
2022-12-27T20:29:00.923Z,4.77
2022-12-27T20:31:10.894Z,4.80
2022-12-27T20:33:13.384Z,4.82
2022-12-27T20:35:14.879Z,4.83
2022-12-27T20:37:21.151Z,4.87
2022-12-27T20:39:25.682Z,4.90
2022-12-27T20:41:28.456Z,4.96
2022-12-27T20:43:30.084Z,5.01
2022-12-27T20:45:31.722Z,5.02
2022-12-27T20:47:33.549Z,5.05
2022-12-27T20:49:35.016Z,5.11
2022-12-27T20:51:37.365Z,5.14
2022-12-27T20:53:39.065Z,5.17
2022-12-27T20:55:40.522Z,5.19
2022-12-27T20:57:42.525Z,5.22
2022-12-27T20:59:44.087Z,5.27
2022-12-27T21:01:45.702Z,5.29
2022-12-27T21:03:48.150Z,5.33
2022-12-27T21:05:49.698Z,5.36
2022-12-27T21:07:51.333Z,5.40
2022-12-27T21:09:52.877Z,5.44
2022-12-27T21:11:54.481Z,5.49
2022-12-27T21:13:55.990Z,5.50
2022-12-27T21:15:57.441Z,5.50
2022-12-27T21:17:58.936Z,5.50
2022-12-27T21:20:00.410Z,5.53
2022-12-27T21:22:01.876Z,5.59
2022-12-27T21:24:04.469Z,5.62
2022-12-27T21:26:15.060Z,5.66
2022-12-27T21:28:16.511Z,5.66
2022-12-27T21:30:18.050Z,5.67
2022-12-27T21:32:19.570Z,5.67
2022-12-27T21:34:21.059Z,5.73
2022-12-27T21:36:28.056Z,5.77
2022-12-27T21:38:29.705Z,5.80
2022-12-27T21:40:31.168Z,5.81
2022-12-27T21:42:32.649Z,5.79
2022-12-27T21:44:36.829Z,5.77
2022-12-27T21:46:41.113Z,5.75
2022-12-27T21:48:43.188Z,5.74
2022-12-27T21:50:45.477Z,5.73
2022-12-27T21:52:46.961Z,5.72
2022-12-27T21:54:48.465Z,5.70
2022-12-27T21:56:50.505Z,5.71
2022-12-27T21:58:52.422Z,5.70
2022-12-27T22:00:57.952Z,5.71
2022-12-27T22:02:59.824Z,5.73
2022-12-27T22:05:01.436Z,5.75
2022-12-27T22:07:03.004Z,5.75
2022-12-27T22:09:06.916Z,5.73
2022-12-27T22:11:08.932Z,5.70
2022-12-27T22:13:10.920Z,5.67
2022-12-27T22:15:12.432Z,5.64
2022-12-27T22:17:13.914Z,5.63
2022-12-27T22:19:15.717Z,5.61
2022-12-27T22:21:23.211Z,5.59
2022-12-27T22:23:24.650Z,5.60
2022-12-27T22:25:26.114Z,5.59
2022-12-27T22:27:27.585Z,5.58
2022-12-27T22:29:34.885Z,5.57
2022-12-27T22:31:37.997Z,5.56
2022-12-27T22:33:40.179Z,5.52
2022-12-27T22:35:41.824Z,5.51
2022-12-27T22:37:43.293Z,5.51
2022-12-27T22:39:44.733Z,5.52
2022-12-27T22:41:46.215Z,5.50
2022-12-27T22:43:52.777Z,5.49
2022-12-27T22:45:54.220Z,5.46
2022-12-27T22:47:55.831Z,5.46
2022-12-27T22:49:57.289Z,5.44
2022-12-27T22:51:58.751Z,5.41
2022-12-27T22:54:02.377Z,5.40
2022-12-27T22:56:04.031Z,5.38
2022-12-27T22:58:05.484Z,5.38
2022-12-27T23:00:12.136Z,5.38
2022-12-27T23:02:13.651Z,5.39
2022-12-27T23:04:15.283Z,5.40
2022-12-27T23:06:17.465Z,5.37
2022-12-27T23:08:18.917Z,5.39
2022-12-27T23:10:20.385Z,5.41
2022-12-27T23:12:21.849Z,5.42
2022-12-27T23:14:23.422Z,5.44
2022-12-27T23:16:25.786Z,5.43
2022-12-27T23:18:28.153Z,5.43
2022-12-27T23:20:29.639Z,5.39
2022-12-27T23:22:31.106Z,5.37
2022-12-27T23:24:33.291Z,5.37
2022-12-27T23:26:35.206Z,5.39
2022-12-27T23:28:37.579Z,5.38
2022-12-27T23:30:39.670Z,5.38
2022-12-27T23:32:41.116Z,5.36
2022-12-27T23:34:42.583Z,5.35
2022-12-27T23:36:44.041Z,5.39
2022-12-27T23:38:46.011Z,5.39
2022-12-27T23:40:54.677Z,5.36
2022-12-27T23:43:06.666Z,5.33
2022-12-27T23:45:18.631Z,5.32
2022-12-27T23:47:20.120Z,5.32
2022-12-27T23:49:21.560Z,5.31
2022-12-27T23:51:23.688Z,5.31
2022-12-27T23:53:25.250Z,5.29
2022-12-27T23:55:26.709Z,5.25
2022-12-27T23:57:28.278Z,5.24
2022-12-27T23:59:29.750Z,5.23
